Time;durP1;ratioP1;P1;durP2;ratioP2;P2;SDS_P1;SDS_P2;PMS_P1;PMS_P2;Temp;Humidity;BMP_temperature;BMP_pressure;BME280_temperature;BME280_humidity;BME280_pressure;Samples;Min_cycle;Max_cycle;Signal;HPM_P1;HPM_P2
2021/03/25 00:01:15;;;;;;;5.40;3.20;;;6.00;99.90;;;;;;5031518;28;20869;-48
2021/03/25 00:03:42;;;;;;;7.60;3.60;;;5.90;99.90;;;;;;5034369;28;20436;-49
2021/03/25 00:06:09;;;;;;;7.20;3.07;;;5.90;99.90;;;;;;5023062;28;20507;-48
2021/03/25 00:08:35;;;;;;;6.90;3.23;;;5.90;99.90;;;;;;5034394;28;20511;-49
2021/03/25 00:11:03;;;;;;;5.10;3.10;;;5.80;99.90;;;;;;5034271;28;20448;-49
2021/03/25 00:13:30;;;;;;;3.90;3.07;;;5.90;99.90;;;;;;5034616;28;20455;-49
2021/03/25 00:36:35;;;;;;;6.80;4.03;;;5.50;99.90;;;;;;5030806;28;20468;-49
2021/03/25 00:42:55;;;;;;;5.20;2.80;;;5.50;99.90;;;;;;5026014;28;20498;-48
2021/03/25 00:45:26;;;;;;;4.43;2.70;;;5.60;99.90;;;;;;5026267;28;20486;-48
2021/03/25 00:47:53;;;;;;;4.23;2.87;;;5.40;99.90;;;;;;5027541;28;20441;-50
2021/03/25 00:50:24;;;;;;;4.07;2.87;;;5.20;99.90;;;;;;5015581;28;20818;-48
2021/03/25 00:52:52;;;;;;;9.60;4.93;;;5.20;99.90;;;;;;5010771;28;20544;-48
2021/03/25 00:55:18;;;;;;;4.33;2.60;;;5.10;99.90;;;;;;5021652;28;20472;-56
2021/03/25 01:14:37;;;;;;;5.87;3.80;;;4.60;99.90;;;;;;5032416;28;20463;-48
2021/03/25 01:17:05;;;;;;;7.30;4.27;;;4.50;99.90;;;;;;5013892;28;20955;-48
2021/03/25 01:19:36;;;;;;;5.53;3.83;;;4.60;99.90;;;;;;5014632;28;20450;-49
2021/03/25 01:22:02;;;;;;;6.27;3.80;;;4.60;99.90;;;;;;5029567;28;20453;-48
2021/03/25 01:24:29;;;;;;;6.50;3.60;;;4.70;99.90;;;;;;5030050;28;20962;-49
2021/03/25 01:26:56;;;;;;;6.87;3.87;;;4.60;99.90;;;;;;5032144;28;20969;-48
2021/03/25 01:29:23;;;;;;;5.17;3.50;;;4.50;99.90;;;;;;5028584;28;20510;-49
2021/03/25 01:31:50;;;;;;;4.20;2.80;;;4.50;99.90;;;;;;5024643;28;20508;-49
2021/03/25 01:34:21;;;;;;;4.97;3.57;;;4.70;99.90;;;;;;5030492;28;20484;-48
2021/03/25 01:36:49;;;;;;;4.23;3.17;;;4.80;99.90;;;;;;5028700;28;20489;-48
2021/03/25 01:39:16;;;;;;;5.40;3.30;;;4.80;99.90;;;;;;5022270;28;20952;-48
2021/03/25 01:41:43;;;;;;;7.60;3.40;;;4.80;99.90;;;;;;5033602;28;20445;-48
2021/03/25 01:44:34;;;;;;;5.80;3.37;;;4.80;99.90;;;;;;5033098;28;20463;-48
2021/03/25 01:47:05;;;;;;;6.50;3.60;;;4.80;99.90;;;;;;5033114;28;20448;-49
2021/03/25 01:49:33;;;;;;;9.27;5.30;;;4.60;99.90;;;;;;5033279;28;20938;-49
2021/03/25 01:52:22;;;;;;;8.77;5.40;;;4.60;99.90;;;;;;5033291;28;20475;-48
2021/03/25 01:55:02;;;;;;;8.93;5.30;;;4.50;99.90;;;;;;5013084;28;20465;-48
2021/03/25 01:57:53;;;;;;;8.17;5.07;;;4.50;99.90;;;;;;5025391;28;20455;-48
2021/03/25 02:00:26;;;;;;;6.53;4.50;;;4.30;99.90;;;;;;5032665;28;20465;-48
2021/03/25 02:03:08;;;;;;;13.83;5.20;;;4.10;99.90;;;;;;5032983;28;20451;-48
2021/03/25 02:05:46;;;;;;;8.07;4.80;;;3.90;99.90;;;;;;5032629;28;20546;-48
2021/03/25 02:08:22;;;;;;;6.47;4.40;;;3.90;99.90;;;;;;5033067;28;20460;-48
2021/03/25 02:10:55;;;;;;;7.57;4.10;;;3.80;99.90;;;;;;5032553;28;20478;-49
2021/03/25 02:13:28;;;;;;;5.47;4.00;;;3.80;99.90;;;;;;5032796;28;20468;-48
2021/03/25 02:16:02;;;;;;;5.10;3.80;;;3.90;99.90;;;;;;5032614;28;20487;-48
2021/03/25 02:18:36;;;;;;;4.47;3.40;;;4.00;99.90;;;;;;5032704;28;20462;-48
2021/03/25 02:21:19;;;;;;;4.97;3.67;;;4.10;99.90;;;;;;5032373;28;20835;-48
2021/03/25 02:24:37;;;;;;;5.30;3.50;;;3.90;99.90;;;;;;5031366;28;20457;-48
2021/03/25 02:27:24;;;;;;;5.20;3.70;;;4.00;99.90;;;;;;4970713;28;20506;-49
2021/03/25 02:29:56;;;;;;;8.13;4.77;;;4.20;99.90;;;;;;4958301;28;20475;-48
2021/03/25 02:32:29;;;;;;;10.20;5.00;;;4.10;99.90;;;;;;5014377;28;20460;-49
2021/03/25 02:35:02;;;;;;;5.27;4.33;;;4.00;99.90;;;;;;5032081;28;20891;-49
2021/03/25 02:37:33;;;;;;;5.80;4.17;;;3.80;99.90;;;;;;5032066;28;20445;-48
2021/03/25 02:40:07;;;;;;;5.93;4.03;;;3.90;99.90;;;;;;5029382;28;20961;-49
2021/03/25 02:42:43;;;;;;;7.03;4.20;;;3.90;99.90;;;;;;5012419;28;20476;-48
2021/03/25 02:45:15;;;;;;;7.70;4.67;;;3.90;99.90;;;;;;5028296;28;20484;-48
2021/03/25 02:47:45;;;;;;;7.23;3.80;;;3.80;99.90;;;;;;5031747;28;20453;-49
2021/03/25 02:50:18;;;;;;;8.80;4.37;;;3.90;99.90;;;;;;5029608;28;20448;-49
2021/03/25 02:52:48;;;;;;;6.53;4.33;;;3.80;99.90;;;;;;5012458;28;20520;-48
2021/03/25 02:55:17;;;;;;;8.13;4.83;;;3.70;99.90;;;;;;5012353;28;20465;-48
2021/03/25 02:57:51;;;;;;;5.87;3.90;;;3.70;99.90;;;;;;5017287;28;20463;-49
2021/03/25 03:00:22;;;;;;;6.40;4.10;;;3.70;99.90;;;;;;5031407;28;20459;-48
2021/03/25 03:02:54;;;;;;;6.63;3.73;;;3.60;99.90;;;;;;5031584;28;20511;-48
2021/03/25 03:05:23;;;;;;;4.60;3.40;;;3.70;99.90;;;;;;5031683;28;20534;-48
2021/03/25 03:07:55;;;;;;;4.93;3.20;;;3.60;99.90;;;;;;5031121;28;20510;-49
2021/03/25 03:10:27;;;;;;;4.67;3.10;;;3.60;99.90;;;;;;5029787;28;20456;-48
2021/03/25 03:12:57;;;;;;;3.93;2.67;;;3.60;99.90;;;;;;5011936;28;20544;-49
2021/03/25 03:15:26;;;;;;;3.50;2.30;;;3.70;99.90;;;;;;5011829;28;20469;-48
2021/03/25 03:18:01;;;;;;;3.50;2.40;;;3.70;99.90;;;;;;5012346;28;20453;-48
2021/03/25 03:20:32;;;;;;;2.73;2.30;;;3.80;99.90;;;;;;5013604;28;21024;-48
2021/03/25 03:22:59;;;;;;;5.93;3.40;;;3.90;99.90;;;;;;5031516;28;20834;-49
2021/03/25 03:25:27;;;;;;;6.03;3.43;;;3.90;99.90;;;;;;5063621;22;20571;-48
2021/03/25 03:27:59;;;;;;;6.70;3.77;;;3.90;99.90;;;;;;5071424;28;20880;-48
2021/03/25 03:30:32;;;;;;;6.17;4.50;;;3.80;99.90;;;;;;5069936;28;20470;-48
2021/03/25 03:33:05;;;;;;;5.20;4.00;;;3.80;99.90;;;;;;5051198;28;20534;-49
2021/03/25 03:35:37;;;;;;;5.70;4.10;;;3.80;99.90;;;;;;5045546;28;20534;-48
2021/03/25 03:38:08;;;;;;;6.73;4.17;;;3.80;99.90;;;;;;5037946;28;20458;-48
2021/03/25 03:40:41;;;;;;;5.70;4.17;;;3.70;99.90;;;;;;5050445;28;20505;-48
2021/03/25 03:43:13;;;;;;;7.90;3.80;;;3.40;99.90;;;;;;5051082;28;20447;-49
2021/03/25 03:45:42;;;;;;;6.80;3.90;;;3.40;99.90;;;;;;5051087;28;20694;-48
2021/03/25 03:48:18;;;;;;;4.17;3.43;;;3.30;99.90;;;;;;5051080;28;20922;-48
2021/03/25 03:50:49;;;;;;;5.47;3.50;;;3.30;99.90;;;;;;5047177;28;20462;-49
2021/03/25 03:53:15;;;;;;;7.27;3.63;;;3.30;99.90;;;;;;5030881;28;20954;-48
2021/03/25 03:55:42;;;;;;;5.07;3.63;;;3.20;99.90;;;;;;5030516;28;20467;-49
2021/03/25 03:58:19;;;;;;;5.40;3.30;;;3.30;99.90;;;;;;5037425;28;20452;-48
2021/03/25 04:00:49;;;;;;;5.23;3.73;;;3.50;99.90;;;;;;5049583;28;20478;-48
2021/03/25 04:03:23;;;;;;;4.80;3.23;;;3.50;99.90;;;;;;5050728;28;20456;-48
2021/03/25 04:05:54;;;;;;;6.97;3.40;;;3.40;99.90;;;;;;5050573;28;20547;-48
2021/03/25 04:08:27;;;;;;;4.90;3.40;;;3.40;99.90;;;;;;5044341;28;20455;-48
2021/03/25 04:11:01;;;;;;;6.23;3.17;;;3.50;99.90;;;;;;5049944;28;20527;-48
2021/03/25 04:13:31;;;;;;;4.63;3.00;;;3.40;99.90;;;;;;5050687;28;20444;-49
2021/03/25 04:15:59;;;;;;;3.70;2.93;;;3.50;99.90;;;;;;5050502;28;20472;-48
2021/03/25 04:18:35;;;;;;;5.87;3.17;;;3.40;99.90;;;;;;5050222;28;20948;-48
2021/03/25 04:21:06;;;;;;;4.77;3.47;;;3.30;99.90;;;;;;5049861;28;20447;-48
2021/03/25 04:23:35;;;;;;;4.90;3.37;;;3.40;99.90;;;;;;5050230;28;20965;-48
2021/03/25 04:26:11;;;;;;;8.73;2.80;;;3.40;99.90;;;;;;5049964;28;20876;-48
2021/03/25 04:28:42;;;;;;;7.50;3.73;;;3.40;99.90;;;;;;5050340;28;20455;-48
2021/03/25 04:31:09;;;;;;;4.50;3.17;;;3.60;99.90;;;;;;5049896;28;20459;-48
2021/03/25 04:33:41;;;;;;;6.60;3.07;;;3.60;99.90;;;;;;5050394;28;20443;-48
2021/03/25 04:36:14;;;;;;;4.97;3.10;;;3.40;99.90;;;;;;5050300;28;20464;-46
2021/03/25 04:38:42;;;;;;;4.70;3.07;;;3.50;99.90;;;;;;5050336;28;20456;-46
2021/03/25 04:41:12;;;;;;;3.30;2.50;;;3.50;99.90;;;;;;5044826;28;20456;-46
2021/03/25 04:43:39;;;;;;;8.83;2.90;;;3.70;99.90;;;;;;5036779;28;20462;-46
2021/03/25 04:46:25;;;;;;;3.50;3.00;;;3.60;99.90;;;;;;5040005;28;20526;-45
2021/03/25 05:09:05;;;;;;;4.37;2.10;;;3.60;99.90;;;;;;5042330;28;20423;-46
2021/03/25 05:11:32;;;;;;;5.03;2.67;;;3.70;99.90;;;;;;5052795;28;20452;-46
2021/03/25 05:14:00;;;;;;;5.00;3.10;;;3.60;99.90;;;;;;5052323;28;20452;-46
2021/03/25 05:16:36;;;;;;;9.17;3.83;;;3.70;99.90;;;;;;5048615;28;20472;-46
2021/03/25 05:19:14;;;;;;;7.80;3.70;;;3.60;99.90;;;;;;5045082;28;20447;-46
2021/03/25 05:21:48;;;;;;;9.30;3.70;;;3.60;99.90;;;;;;5033828;28;20467;-46
2021/03/25 05:24:25;;;;;;;6.60;5.00;;;3.50;99.90;;;;;;5033828;28;20942;-46
2021/03/25 05:26:58;;;;;;;8.20;4.60;;;3.40;99.90;;;;;;5051068;28;20549;-46
2021/03/25 05:29:28;;;;;;;7.30;3.77;;;3.40;99.90;;;;;;5046828;28;20448;-46
2021/03/25 05:31:55;;;;;;;5.80;3.77;;;3.50;99.90;;;;;;5041814;28;20538;-46
2021/03/25 05:34:23;;;;;;;5.50;3.73;;;3.60;99.90;;;;;;5048786;28;20522;-46
2021/03/25 05:36:53;;;;;;;6.10;3.43;;;3.60;99.90;;;;;;5048999;28;20467;-46
2021/03/25 05:39:21;;;;;;;5.47;3.40;;;3.70;99.90;;;;;;5036646;28;20534;-46
2021/03/25 05:41:54;;;;;;;5.07;3.27;;;3.70;99.90;;;;;;5051944;28;20451;-46
2021/03/25 05:44:54;;;;;;;7.23;4.00;;;3.70;99.90;;;;;;5051902;28;20448;-47
2021/03/25 05:47:42;;;;;;;3.40;3.10;;;3.80;99.90;;;;;;5052063;28;20451;-47
2021/03/25 05:50:17;;;;;;;7.43;4.10;;;3.80;99.90;;;;;;5049188;28;20448;-46
2021/03/25 05:52:54;;;;;;;7.23;4.37;;;4.00;99.90;;;;;;5052019;28;20485;-46
2021/03/25 05:55:44;;;;;;;6.77;4.43;;;4.20;99.90;;;;;;5038182;28;21055;-46
2021/03/25 05:58:22;;;;;;;8.37;4.67;;;4.40;99.90;;;;;;5038978;28;20457;-46
2021/03/25 06:00:58;;;;;;;12.33;5.10;;;4.40;99.90;;;;;;5048788;28;20447;-46
2021/03/25 06:03:26;;;;;;;11.37;5.23;;;4.40;99.90;;;;;;5046134;28;20445;-46
2021/03/25 06:05:56;;;;;;;7.83;4.90;;;4.40;99.90;;;;;;5033046;28;20546;-46
2021/03/25 06:08:38;;;;;;;7.73;4.63;;;4.40;99.90;;;;;;5033807;28;20450;-47
2021/03/25 06:11:18;;;;;;;6.93;4.60;;;4.80;99.90;;;;;;5044082;28;20448;-46
2021/03/25 06:14:05;;;;;;;6.03;3.50;;;5.50;99.90;;;;;;5042339;28;20815;-47
2021/03/25 06:16:48;;;;;;;7.97;2.93;;;6.30;99.90;;;;;;5044038;28;20457;-47
2021/03/25 06:19:45;;;;;;;5.63;3.20;;;6.80;99.90;;;;;;5049833;28;20450;-47
2021/03/25 06:22:16;;;;;;;4.10;2.90;;;7.60;99.90;;;;;;5052424;28;20953;-47
2021/03/25 06:25:15;;;;;;;3.30;1.90;;;8.10;99.90;;;;;;5052121;28;20945;-47
2021/03/25 06:28:01;;;;;;;2.33;1.60;;;8.80;99.90;;;;;;5041347;28;20455;-47
2021/03/25 06:30:32;;;;;;;3.50;1.70;;;9.10;99.90;;;;;;5034253;28;20440;-48
2021/03/25 06:33:04;;;;;;;5.23;1.93;;;9.60;99.90;;;;;;5032464;28;20441;-48
2021/03/25 06:35:36;;;;;;;10.77;2.63;;;10.10;99.90;;;;;;5037375;28;20459;-47
2021/03/25 06:38:10;;;;;;;3.40;1.93;;;10.50;99.40;;;;;;5035489;28;20451;-48
2021/03/25 06:40:40;;;;;;;2.90;2.13;;;11.10;98.20;;;;;;5050920;28;20506;-49
2021/03/25 06:43:14;;;;;;;2.63;2.10;;;11.60;96.90;;;;;;5051501;28;20494;-48
2021/03/25 06:45:45;;;;;;;2.17;1.60;;;12.00;97.00;;;;;;5051755;28;20574;-48
2021/03/25 06:48:16;;;;;;;6.63;2.27;;;12.30;95.00;;;;;;5046400;28;20893;-49
2021/03/25 06:50:47;;;;;;;7.30;2.07;;;12.50;94.90;;;;;;5051384;28;20459;-49
2021/03/25 06:53:23;;;;;;;6.33;1.77;;;12.90;93.20;;;;;;5049843;28;20454;-48
2021/03/25 06:55:54;;;;;;;3.03;2.10;;;13.10;93.80;;;;;;5034356;28;20475;-48
2021/03/25 06:58:27;;;;;;;3.33;2.53;;;13.30;92.80;;;;;;5032264;28;20447;-48
2021/03/25 07:00:58;;;;;;;3.03;2.60;;;13.10;92.00;;;;;;5032337;28;20452;-48
2021/03/25 07:03:27;;;;;;;4.70;2.40;;;13.50;92.00;;;;;;5040412;28;20458;-48
2021/03/25 07:05:55;;;;;;;4.17;2.23;;;13.60;91.10;;;;;;5041523;28;20518;-49
2021/03/25 07:08:25;;;;;;;3.57;2.20;;;13.80;90.30;;;;;;5050050;28;20440;-48
2021/03/25 07:10:54;;;;;;;2.50;2.07;;;13.80;90.50;;;;;;5037443;28;20449;-49
2021/03/25 07:13:31;;;;;;;9.17;2.07;;;14.00;89.60;;;;;;5032262;28;20445;-49
2021/03/25 07:15:58;;;;;;;2.23;1.97;;;13.60;88.00;;;;;;5032842;28;20471;-48
2021/03/25 07:18:38;;;;;;;2.87;2.00;;;14.10;87.30;;;;;;5045172;28;20850;-48
2021/03/25 07:21:37;;;;;;;3.30;1.80;;;14.20;86.40;;;;;;5040944;28;20856;-48
2021/03/25 07:24:07;;;;;;;2.43;2.10;;;14.50;86.00;;;;;;5001091;28;20453;-48
2021/03/25 07:26:40;;;;;;;2.00;1.70;;;14.80;85.70;;;;;;5022132;28;20484;-49
2021/03/25 07:29:21;;;;;;;2.60;1.60;;;14.90;82.00;;;;;;5036373;28;20523;-48
2021/03/25 07:31:57;;;;;;;7.60;2.10;;;15.10;82.80;;;;;;5043399;28;20460;-49
2021/03/25 07:34:32;;;;;;;5.30;2.20;;;15.00;82.70;;;;;;5041673;28;20471;-48
2021/03/25 07:37:01;;;;;;;3.50;2.30;;;15.10;80.80;;;;;;5039014;28;20849;-48
2021/03/25 07:39:29;;;;;;;3.63;2.30;;;15.70;81.00;;;;;;5032085;28;20794;-49
2021/03/25 07:41:58;;;;;;;2.53;2.00;;;15.90;80.80;;;;;;5045516;28;20460;-48
2021/03/25 07:44:36;;;;;;;3.63;2.03;;;15.60;80.60;;;;;;5039042;28;20448;-48
2021/03/25 07:47:05;;;;;;;8.37;2.50;;;15.20;79.70;;;;;;5034694;28;20503;-48
2021/03/25 07:49:38;;;;;;;4.80;2.40;;;15.00;81.10;;;;;;5049516;28;20444;-48
2021/03/25 07:52:06;;;;;;;4.90;2.00;;;14.60;82.70;;;;;;5042393;28;20455;-48
2021/03/25 07:54:38;;;;;;;13.03;2.63;;;14.80;83.20;;;;;;5043963;28;20513;-48
2021/03/25 07:57:10;;;;;;;3.13;2.17;;;14.50;83.20;;;;;;5050125;28;20479;-49
2021/03/25 07:59:41;;;;;;;5.00;2.50;;;14.20;84.00;;;;;;5049869;28;20451;-48
2021/03/25 08:02:29;;;;;;;3.60;2.30;;;13.70;85.40;;;;;;5045469;28;20458;-49
2021/03/25 08:04:57;;;;;;;6.50;2.23;;;14.20;85.70;;;;;;5042358;28;20848;-48
2021/03/25 08:07:25;;;;;;;3.57;2.57;;;14.70;88.10;;;;;;5049306;28;20862;-48
2021/03/25 08:09:54;;;;;;;3.07;2.00;;;15.40;87.20;;;;;;5047984;28;20945;-48
2021/03/25 08:12:32;;;;;;;2.53;2.00;;;15.80;86.60;;;;;;5049359;28;20455;-48
2021/03/25 08:15:22;;;;;;;2.77;2.13;;;16.30;85.50;;;;;;5046833;28;21003;-48
2021/03/25 08:18:04;;;;;;;2.13;1.80;;;16.20;83.60;;;;;;5034278;28;20458;-48
2021/03/25 08:20:37;;;;;;;2.67;1.77;;;16.30;87.70;;;;;;5049868;28;20452;-48
2021/03/25 08:23:29;;;;;;;2.53;1.50;;;16.20;82.80;;;;;;5049928;28;20471;-48
2021/03/25 08:26:04;;;;;;;3.83;1.50;;;16.20;81.30;;;;;;5043910;28;20487;-49
2021/03/25 08:29:03;;;;;;;3.43;1.50;;;16.50;78.10;;;;;;5043338;28;20843;-47
2021/03/25 08:31:35;;;;;;;4.60;1.43;;;16.90;80.90;;;;;;5044600;28;20452;-47
2021/03/25 08:34:31;;;;;;;1.67;1.30;;;16.80;79.70;;;;;;5041154;28;20453;-47
2021/03/25 08:37:10;;;;;;;2.90;1.37;;;17.10;77.80;;;;;;5033252;28;20473;-47
2021/03/25 08:39:47;;;;;;;3.70;1.27;;;16.10;82.70;;;;;;5034912;28;21497;-47
2021/03/25 08:42:23;;;;;;;1.40;1.10;;;16.00;81.80;;;;;;5029275;28;20463;-47
2021/03/25 08:44:56;;;;;;;1.20;1.00;;;16.20;76.70;;;;;;5042329;28;20439;-48
2021/03/25 08:47:27;;;;;;;1.83;1.10;;;16.30;80.90;;;;;;5039482;28;20480;-47
2021/03/25 08:50:02;;;;;;;3.50;1.30;;;16.70;79.30;;;;;;5029974;28;20448;-47
2021/03/25 08:52:33;;;;;;;1.30;1.20;;;17.00;74.80;;;;;;5044126;28;20500;-47
2021/03/25 08:55:09;;;;;;;3.03;1.20;;;17.10;78.00;;;;;;5048397;28;20454;-47
2021/03/25 08:57:38;;;;;;;5.73;1.20;;;17.40;73.10;;;;;;5037117;28;20451;-47
2021/03/25 09:00:11;;;;;;;3.10;1.10;;;17.50;72.80;;;;;;5029958;28;20615;-47
2021/03/25 09:02:44;;;;;;;2.57;1.20;;;17.80;73.50;;;;;;5029935;28;20468;-47
2021/03/25 09:05:21;;;;;;;1.87;1.30;;;18.60;77.10;;;;;;5029684;28;20460;-47
2021/03/25 09:07:49;;;;;;;1.63;1.23;;;18.20;71.30;;;;;;5041176;28;20497;-47
2021/03/25 09:10:32;;;;;;;1.57;1.10;;;18.50;76.30;;;;;;5048832;28;20447;-48
2021/03/25 09:12:58;;;;;;;1.97;1.40;;;19.30;74.70;;;;;;5048333;28;20866;-47
2021/03/25 09:15:25;;;;;;;4.33;1.47;;;18.30;75.10;;;;;;5048636;28;20459;-47
2021/03/25 09:17:55;;;;;;;1.40;1.10;;;18.80;73.40;;;;;;5036742;28;20456;-47
2021/03/25 09:20:27;;;;;;;3.23;1.50;;;18.20;74.40;;;;;;5046366;28;20455;-47
2021/03/25 09:22:58;;;;;;;1.87;1.17;;;18.70;71.50;;;;;;5033599;28;20497;-47
2021/03/25 09:25:38;;;;;;;2.10;1.60;;;17.80;72.80;;;;;;5071938;22;20476;-50
2021/03/25 09:28:09;;;;;;;1.90;1.20;;;18.00;73.60;;;;;;5047050;28;21031;-51
2021/03/25 09:30:39;;;;;;;1.47;1.17;;;18.30;70.50;;;;;;5049176;28;20455;-53
2021/03/25 09:33:39;;;;;;;1.30;1.10;;;18.90;67.80;;;;;;5051567;28;20530;-51
2021/03/25 09:36:51;;;;;;;4.23;1.53;;;18.50;73.50;;;;;;5034324;28;20472;-52
2021/03/25 09:39:30;;;;;;;1.67;1.57;;;18.10;74.30;;;;;;5013425;28;20445;-52
2021/03/25 09:42:00;;;;;;;1.73;1.57;;;18.40;68.90;;;;;;5013097;28;20449;-52
2021/03/25 09:44:37;;;;;;;4.30;1.60;;;18.70;72.00;;;;;;5020607;28;20467;-52
2021/03/25 09:47:18;;;;;;;2.90;1.50;;;18.70;66.60;;;;;;5049115;28;20984;-52
2021/03/25 09:49:47;;;;;;;3.33;1.50;;;19.00;67.00;;;;;;5047248;28;20550;-52
2021/03/25 09:52:28;;;;;;;4.20;1.63;;;18.90;68.00;;;;;;5013013;28;20465;-52
2021/03/25 09:55:25;;;;;;;5.67;1.73;;;19.30;65.20;;;;;;5024463;28;20474;-51
2021/03/25 09:57:54;;;;;;;1.40;1.30;;;18.90;65.80;;;;;;4972590;28;20936;-51
2021/03/25 10:00:56;;;;;;;2.50;1.67;;;18.30;67.60;;;;;;5003720;28;20511;-51
2021/03/25 10:04:02;;;;;;;2.40;1.77;;;18.30;64.60;;;;;;5013244;28;20809;-51
2021/03/25 10:07:03;;;;;;;3.83;1.87;;;19.10;64.10;;;;;;5035498;28;20484;-51
2021/03/25 10:09:58;;;;;;;1.83;1.50;;;19.00;65.50;;;;;;4989774;28;20450;-51
2021/03/25 10:12:45;;;;;;;2.43;1.67;;;19.80;64.70;;;;;;5012540;28;20454;-51
2021/03/25 10:15:56;;;;;;;3.20;2.20;;;19.70;64.20;;;;;;5025760;28;20778;-53
2021/03/25 10:18:45;;;;;;;8.80;6.20;;;18.50;68.00;;;;;;5032456;28;20444;-52
2021/03/25 10:21:15;;;;;;;6.93;6.10;;;18.40;77.10;;;;;;5020006;28;20449;-53
2021/03/25 10:23:57;;;;;;;6.93;5.87;;;19.10;75.00;;;;;;5013617;28;20961;-50
2021/03/25 10:26:34;;;;;;;12.30;6.20;;;19.40;76.70;;;;;;5030587;28;20989;-53
2021/03/25 10:29:04;;;;;;;9.10;5.70;;;19.10;80.40;;;;;;5031702;28;20441;-53
2021/03/25 10:31:40;;;;;;;12.27;5.70;;;19.40;77.30;;;;;;5031555;28;20460;-53
2021/03/25 10:34:13;;;;;;;8.50;6.50;;;19.40;77.90;;;;;;5031344;28;20444;-53
2021/03/25 10:36:46;;;;;;;8.73;6.00;;;18.90;77.70;;;;;;5033939;28;20472;-51
2021/03/25 10:39:23;;;;;;;9.47;6.40;;;19.50;76.50;;;;;;5031679;28;20447;-51
2021/03/25 10:41:51;;;;;;;10.17;7.00;;;19.70;77.40;;;;;;5031569;28;20942;-52
2021/03/25 10:44:20;;;;;;;8.40;6.13;;;18.80;77.60;;;;;;5030941;28;20491;-52
2021/03/25 10:46:47;;;;;;;8.03;5.70;;;18.30;79.10;;;;;;5030896;28;20483;-52
2021/03/25 10:49:17;;;;;;;8.47;6.77;;;18.80;76.90;;;;;;5031286;28;20833;-51
2021/03/25 10:51:46;;;;;;;8.30;6.53;;;17.60;82.40;;;;;;5031537;28;20491;-50
2021/03/25 10:54:23;;;;;;;12.60;6.73;;;17.20;83.30;;;;;;5031308;28;20455;-52
2021/03/25 10:56:57;;;;;;;8.43;6.43;;;16.20;87.50;;;;;;5031180;28;20463;-50
2021/03/25 10:59:26;;;;;;;8.13;6.60;;;16.90;85.50;;;;;;5031862;28;20527;-51
2021/03/25 11:01:54;;;;;;;7.80;6.10;;;17.40;83.90;;;;;;5031515;28;20459;-50
2021/03/25 11:04:23;;;;;;;9.37;6.10;;;17.40;81.40;;;;;;5032075;28;20500;-50
2021/03/25 11:06:50;;;;;;;10.80;5.93;;;17.80;79.90;;;;;;5030485;28;20485;-50
2021/03/25 11:09:21;;;;;;;9.33;6.60;;;17.40;85.90;;;;;;5033672;28;20448;-51
2021/03/25 11:11:51;;;;;;;11.70;7.80;;;16.90;85.70;;;;;;5030751;28;20498;-52
2021/03/25 11:14:24;;;;;;;11.83;7.00;;;16.60;84.40;;;;;;5031274;28;21017;-51
2021/03/25 11:16:54;;;;;;;10.63;7.07;;;16.80;86.60;;;;;;5030633;28;20986;-51
2021/03/25 11:19:21;;;;;;;11.47;7.73;;;16.30;90.10;;;;;;5030732;28;20817;-50
2021/03/25 11:21:48;;;;;;;11.40;8.70;;;15.80;90.20;;;;;;5030634;28;20440;-49
2021/03/25 11:24:22;;;;;;;9.33;7.60;;;15.20;91.30;;;;;;5031408;28;20471;-50
2021/03/25 11:26:54;;;;;;;9.33;7.67;;;15.20;92.30;;;;;;5030140;28;20484;-50
2021/03/25 11:29:22;;;;;;;12.00;7.80;;;15.70;91.80;;;;;;5030824;28;20445;-53
2021/03/25 11:31:49;;;;;;;11.57;7.60;;;15.80;90.60;;;;;;5030633;28;20445;-50
2021/03/25 11:34:25;;;;;;;15.00;8.03;;;16.10;88.60;;;;;;5031275;28;20460;-49
2021/03/25 11:36:52;;;;;;;11.00;7.53;;;15.60;90.20;;;;;;5029345;28;21029;-50
2021/03/25 11:39:26;;;;;;;11.53;8.07;;;15.00;91.00;;;;;;5025850;28;20820;-50
2021/03/25 11:41:55;;;;;;;9.57;6.90;;;15.40;87.40;;;;;;5025556;28;20998;-53
2021/03/25 11:44:47;;;;;;;11.93;7.60;;;15.70;87.70;;;;;;5033096;28;20448;-48
2021/03/25 11:47:30;;;;;;;12.47;7.07;;;15.70;89.80;;;;;;5026728;28;20492;-50
2021/03/25 11:49:57;;;;;;;11.27;5.80;;;15.70;87.20;;;;;;5029647;28;20441;-50
2021/03/25 11:52:23;;;;;;;11.27;6.47;;;15.90;83.90;;;;;;5031470;28;20452;-49
2021/03/25 11:55:00;;;;;;;9.47;5.60;;;15.80;86.60;;;;;;5030844;28;20941;-49
2021/03/25 11:57:31;;;;;;;11.30;6.60;;;16.00;81.90;;;;;;5020343;28;20469;-49
2021/03/25 12:00:09;;;;;;;11.93;5.87;;;15.60;81.30;;;;;;5011106;28;20456;-51
2021/03/25 12:02:36;;;;;;;6.70;4.50;;;16.00;77.70;;;;;;5014492;28;20452;-50
2021/03/25 12:05:40;;;;;;;8.13;5.10;;;16.10;77.70;;;;;;5030684;28;20518;-50
2021/03/25 12:08:22;;;;;;;9.27;5.47;;;16.30;77.30;;;;;;4973015;28;20455;-50
2021/03/25 12:11:00;;;;;;;15.17;9.43;;;16.40;77.70;;;;;;4969293;28;20466;-50
2021/03/25 12:13:26;;;;;;;11.60;7.53;;;16.50;76.40;;;;;;4996590;28;20453;-51
2021/03/25 12:15:53;;;;;;;8.13;5.87;;;16.70;74.80;;;;;;5028118;28;20555;-50
2021/03/25 12:18:23;;;;;;;13.53;7.30;;;16.50;79.60;;;;;;5013107;28;20454;-51
2021/03/25 12:20:50;;;;;;;7.90;5.70;;;16.60;78.00;;;;;;5010832;28;20453;-51
2021/03/25 12:23:19;;;;;;;8.27;4.90;;;16.00;79.70;;;;;;5010817;28;20465;-51
2021/03/25 12:25:47;;;;;;;7.97;5.30;;;16.20;78.60;;;;;;5018499;28;20489;-50
2021/03/25 12:28:16;;;;;;;8.83;5.63;;;16.30;74.70;;;;;;5026553;28;20488;-51
2021/03/25 12:30:43;;;;;;;9.23;5.43;;;16.40;75.30;;;;;;5029775;28;20488;-50
2021/03/25 12:33:17;;;;;;;9.40;5.27;;;16.60;75.10;;;;;;5030788;28;20802;-51
2021/03/25 12:35:43;;;;;;;8.70;5.60;;;16.70;74.30;;;;;;5021208;28;20509;-50
2021/03/25 12:38:10;;;;;;;8.43;5.33;;;16.70;75.70;;;;;;5016801;28;20452;-50
2021/03/25 12:40:37;;;;;;;8.30;5.00;;;16.30;76.00;;;;;;5029270;28;20548;-50
2021/03/25 12:43:03;;;;;;;9.67;5.80;;;16.30;74.40;;;;;;5029236;28;20892;-50
2021/03/25 12:45:33;;;;;;;13.40;5.90;;;16.10;74.60;;;;;;5029284;28;20469;-50
2021/03/25 12:47:59;;;;;;;11.60;7.63;;;16.00;75.20;;;;;;5025303;28;20481;-51
2021/03/25 12:50:27;;;;;;;16.30;10.00;;;16.30;76.60;;;;;;5029330;28;20495;-51
2021/03/25 12:52:54;;;;;;;21.37;11.37;;;16.30;75.10;;;;;;5029342;28;20445;-50
2021/03/25 12:55:22;;;;;;;13.20;7.80;;;16.20;77.00;;;;;;5029182;28;20448;-51
2021/03/25 12:57:50;;;;;;;14.00;6.83;;;16.30;76.40;;;;;;5025376;28;20440;-50
2021/03/25 13:00:24;;;;;;;13.53;7.60;;;16.10;80.10;;;;;;5029586;28;20453;-50
2021/03/25 13:02:51;;;;;;;14.20;8.60;;;16.20;77.80;;;;;;5029523;28;20445;-50
2021/03/25 13:05:20;;;;;;;11.27;6.73;;;16.50;75.80;;;;;;5029273;28;20449;-50
2021/03/25 13:07:47;;;;;;;14.00;7.30;;;16.50;76.90;;;;;;5030655;28;20480;-52
2021/03/25 13:10:15;;;;;;;11.30;7.20;;;16.50;76.50;;;;;;5029070;28;20969;-50
2021/03/25 13:12:41;;;;;;;13.57;7.57;;;16.50;76.90;;;;;;5032561;28;20863;-49
2021/03/25 13:15:09;;;;;;;11.07;7.00;;;16.80;77.60;;;;;;5032806;28;20444;-50
2021/03/25 13:17:35;;;;;;;12.17;6.50;;;16.90;76.30;;;;;;5032590;28;20432;-49
2021/03/25 13:20:05;;;;;;;16.93;7.03;;;16.90;76.70;;;;;;5028609;28;20444;-51
2021/03/25 13:22:31;;;;;;;19.03;7.87;;;17.00;77.20;;;;;;5032635;28;20498;-51
2021/03/25 13:24:58;;;;;;;16.97;7.00;;;16.70;81.10;;;;;;5015793;28;20476;-51
2021/03/25 13:27:24;;;;;;;15.33;8.40;;;16.60;79.30;;;;;;5013852;28;20489;-51
2021/03/25 13:29:51;;;;;;;22.33;7.20;;;16.90;77.90;;;;;;5015122;28;20458;-50
2021/03/25 13:32:17;;;;;;;12.00;6.90;;;17.20;77.00;;;;;;5014069;28;20507;-51
2021/03/25 13:34:44;;;;;;;13.07;6.90;;;17.20;76.60;;;;;;5029648;28;20453;-50
2021/03/25 13:37:12;;;;;;;14.90;6.93;;;17.30;78.80;;;;;;5050727;28;20470;-51
2021/03/25 13:39:39;;;;;;;14.13;6.83;;;16.90;76.00;;;;;;5053168;28;20827;-50
2021/03/25 13:42:07;;;;;;;12.90;7.20;;;16.60;78.00;;;;;;5015239;28;20484;-50
2021/03/25 13:44:33;;;;;;;11.83;7.30;;;16.70;79.00;;;;;;5037190;28;20456;-50
2021/03/25 13:47:00;;;;;;;11.97;6.70;;;16.50;77.20;;;;;;5048413;28;20479;-50
2021/03/25 13:49:26;;;;;;;14.73;7.43;;;16.60;77.20;;;;;;5013626;28;20461;-51
2021/03/25 13:51:53;;;;;;;14.10;7.43;;;16.80;76.60;;;;;;5014522;28;20449;-51
2021/03/25 13:54:20;;;;;;;16.20;7.73;;;16.90;76.60;;;;;;5032336;28;20506;-50
2021/03/25 13:56:47;;;;;;;15.80;7.50;;;17.00;75.60;;;;;;5053037;28;20463;-51
2021/03/25 13:59:14;;;;;;;12.80;6.80;;;17.20;76.40;;;;;;5053290;28;20448;-51
2021/03/25 14:01:40;;;;;;;12.47;6.40;;;17.20;75.90;;;;;;5053027;28;20941;-51
2021/03/25 14:04:07;;;;;;;14.30;5.93;;;17.40;77.60;;;;;;5034598;28;20444;-50
2021/03/25 14:06:33;;;;;;;12.73;6.50;;;17.00;76.40;;;;;;5052471;28;20483;-51
2021/03/25 14:09:00;;;;;;;18.83;7.97;;;17.20;74.00;;;;;;5030104;28;20991;-50
2021/03/25 14:11:27;;;;;;;13.57;7.30;;;17.30;76.10;;;;;;5013343;28;20503;-51
2021/03/25 14:13:54;;;;;;;11.53;6.30;;;17.00;75.70;;;;;;5024266;28;20445;-50
2021/03/25 14:16:20;;;;;;;13.80;6.90;;;16.90;76.00;;;;;;5052502;28;20521;-51
2021/03/25 14:18:48;;;;;;;12.30;7.23;;;17.10;73.90;;;;;;5013518;28;20930;-50
2021/03/25 14:21:15;;;;;;;11.70;6.40;;;17.20;71.10;;;;;;5012915;28;20453;-51